Time;durP1;ratioP1;P1;durP2;ratioP2;P2;SDS_P1;SDS_P2;PMS_P1;PMS_P2;Temp;Humidity;BMP_temperature;BMP_pressure;BME280_temperature;BME280_humidity;BME280_pressure;Samples;Min_cycle;Max_cycle;Signal;HPM_P1;HPM_P2
2021/09/15 00:01:59;;;;;;;0.40;0.30;;;19.80;99.90;;;;;;5011739;28;20393;-72
2021/09/15 00:04:25;;;;;;;0.40;0.30;;;19.80;99.90;;;;;;5010683;28;20963;-72
2021/09/15 00:06:50;;;;;;;0.40;0.20;;;19.80;99.90;;;;;;5011612;28;20899;-72
2021/09/15 00:09:16;;;;;;;0.40;0.20;;;19.80;99.90;;;;;;5010665;28;20373;-72
2021/09/15 00:11:41;;;;;;;0.40;0.20;;;19.70;99.90;;;;;;5011384;28;20877;-72
2021/09/15 00:14:07;;;;;;;0.40;0.20;;;19.60;99.90;;;;;;5010707;28;20436;-72
2021/09/15 00:16:33;;;;;;;0.40;0.20;;;19.70;99.90;;;;;;5011903;28;20420;-72
2021/09/15 00:18:58;;;;;;;0.40;0.25;;;19.70;99.90;;;;;;5011599;28;20381;-73
2021/09/15 00:21:24;;;;;;;0.40;0.20;;;19.80;99.90;;;;;;5010831;28;20377;-73
2021/09/15 00:23:50;;;;;;;0.40;0.30;;;19.80;99.90;;;;;;5011544;28;20904;-73
2021/09/15 00:26:15;;;;;;;0.40;0.30;;;19.70;99.90;;;;;;5010580;28;20417;-73
2021/09/15 00:28:41;;;;;;;0.40;0.30;;;19.70;99.90;;;;;;5011473;28;20388;-72
2021/09/15 00:31:07;;;;;;;0.40;0.30;;;19.80;99.90;;;;;;5010660;28;20385;-73
2021/09/15 00:33:32;;;;;;;0.40;0.30;;;19.70;99.90;;;;;;5011413;28;20389;-73
2021/09/15 00:35:58;;;;;;;0.40;0.20;;;19.70;99.90;;;;;;5011356;28;20424;-72
2021/09/15 00:38:23;;;;;;;0.40;0.30;;;19.70;99.90;;;;;;5010616;28;20490;-73
2021/09/15 00:40:49;;;;;;;0.40;0.20;;;19.70;99.90;;;;;;5011395;28;20851;-72
2021/09/15 00:43:14;;;;;;;0.40;0.25;;;19.60;99.90;;;;;;5010448;28;20487;-73
2021/09/15 00:45:40;;;;;;;0.40;0.30;;;19.60;99.90;;;;;;5011160;28;20419;-72
2021/09/15 00:48:06;;;;;;;0.40;0.23;;;19.60;99.90;;;;;;5014806;28;20529;-74
2021/09/15 00:50:31;;;;;;;0.40;0.30;;;19.60;99.90;;;;;;5030720;28;20456;-73
2021/09/15 00:52:59;;;;;;;0.40;0.30;;;19.60;99.90;;;;;;5030436;28;20751;-72
2021/09/15 00:55:25;;;;;;;0.40;0.20;;;19.60;99.90;;;;;;5029509;28;21096;-73
2021/09/15 00:57:51;;;;;;;0.40;0.20;;;19.60;99.90;;;;;;5030723;28;20491;-72
2021/09/15 01:00:16;;;;;;;0.40;0.30;;;19.60;99.90;;;;;;5029829;28;20402;-72
2021/09/15 01:02:42;;;;;;;0.40;0.30;;;19.60;99.90;;;;;;5030786;28;20383;-73
2021/09/15 01:05:08;;;;;;;0.40;0.20;;;19.50;99.90;;;;;;5029798;28;20439;-74
2021/09/15 01:07:35;;;;;;;0.40;0.20;;;19.60;99.90;;;;;;5030701;28;20859;-73
2021/09/15 01:10:02;;;;;;;0.40;0.20;;;19.60;99.90;;;;;;5021743;28;20942;-72
2021/09/15 01:12:28;;;;;;;0.40;0.30;;;19.50;99.90;;;;;;5009711;28;20585;-72
2021/09/15 01:14:53;;;;;;;0.40;0.20;;;19.60;99.90;;;;;;5010659;28;20397;-73
2021/09/15 01:17:19;;;;;;;0.40;0.20;;;19.50;99.90;;;;;;5009608;28;20388;-72
2021/09/15 01:19:44;;;;;;;0.40;0.30;;;19.50;99.90;;;;;;5011233;28;20890;-73
2021/09/15 01:22:10;;;;;;;0.40;0.20;;;19.50;99.90;;;;;;5010130;28;20464;-72
2021/09/15 01:24:36;;;;;;;0.40;0.20;;;19.50;99.90;;;;;;5010675;28;20519;-73
2021/09/15 01:27:02;;;;;;;0.40;0.20;;;19.40;99.90;;;;;;5010514;28;20393;-72
2021/09/15 01:29:33;;;;;;;0.40;0.20;;;19.30;99.90;;;;;;5010348;28;20385;-73
2021/09/15 01:32:03;;;;;;;0.40;0.30;;;19.30;99.90;;;;;;5011020;28;20468;-72
2021/09/15 01:34:41;;;;;;;0.40;0.20;;;19.20;99.90;;;;;;5010338;28;20424;-72
2021/09/15 01:37:09;;;;;;;0.40;0.30;;;19.20;99.90;;;;;;5010446;28;20384;-74
2021/09/15 01:39:35;;;;;;;0.40;0.30;;;19.20;99.90;;;;;;5010886;28;20868;-73
2021/09/15 01:42:02;;;;;;;0.40;0.20;;;19.10;99.90;;;;;;5011095;28;20397;-73
2021/09/15 01:44:43;;;;;;;0.40;0.30;;;19.20;99.90;;;;;;5009496;28;21022;-73
2021/09/15 01:47:11;;;;;;;0.40;0.30;;;19.20;99.90;;;;;;5024675;28;20385;-73
2021/09/15 01:49:39;;;;;;;0.40;0.20;;;19.10;99.90;;;;;;5010457;28;20856;-71
2021/09/15 01:52:06;;;;;;;0.40;0.30;;;19.10;99.90;;;;;;5010623;28;20381;-72
2021/09/15 01:54:32;;;;;;;0.40;0.20;;;19.00;99.90;;;;;;4992527;28;20911;-71
2021/09/15 01:56:58;;;;;;;0.40;0.20;;;19.00;99.90;;;;;;5010481;28;20393;-72
2021/09/15 01:59:23;;;;;;;0.40;0.30;;;19.00;99.90;;;;;;5009858;28;20385;-71
2021/09/15 02:01:49;;;;;;;0.40;0.20;;;18.90;99.90;;;;;;5010348;28;20511;-73
2021/09/15 02:04:15;;;;;;;0.40;0.30;;;18.90;99.90;;;;;;5009958;28;20780;-73
2021/09/15 02:06:41;;;;;;;0.40;0.20;;;18.90;99.90;;;;;;5010410;28;20389;-73
2021/09/15 02:09:07;;;;;;;0.40;0.30;;;18.90;99.90;;;;;;5014836;28;20392;-73
2021/09/15 02:11:35;;;;;;;0.40;0.20;;;19.00;99.90;;;;;;5033036;28;20800;-73
2021/09/15 02:14:01;;;;;;;0.40;0.20;;;19.00;99.90;;;;;;5033385;28;20411;-71
2021/09/15 02:16:27;;;;;;;0.40;0.20;;;19.10;99.90;;;;;;5033095;28;20392;-71
2021/09/15 02:18:52;;;;;;;0.40;0.30;;;19.10;99.90;;;;;;5033619;28;20425;-73
2021/09/15 02:21:19;;;;;;;0.40;0.20;;;19.10;99.90;;;;;;5033248;28;20829;-72
2021/09/15 02:23:45;;;;;;;0.40;0.20;;;19.10;99.90;;;;;;5033872;28;20736;-72
2021/09/15 02:26:12;;;;;;;0.40;0.30;;;19.00;99.90;;;;;;5032870;28;20390;-73
2021/09/15 02:28:38;;;;;;;0.40;0.30;;;19.00;99.90;;;;;;5034069;28;20375;-72
2021/09/15 02:31:04;;;;;;;0.40;0.20;;;19.00;99.90;;;;;;5033640;28;20383;-72
2021/09/15 02:33:30;;;;;;;0.40;0.30;;;19.00;99.90;;;;;;5032794;28;20383;-72
2021/09/15 02:35:56;;;;;;;0.40;0.20;;;19.00;99.90;;;;;;5015753;28;20403;-72
2021/09/15 02:38:21;;;;;;;0.40;0.23;;;18.90;99.90;;;;;;5033194;28;20391;-73
2021/09/15 02:40:48;;;;;;;0.40;0.20;;;18.90;99.90;;;;;;5015796;28;20786;-72
2021/09/15 02:43:13;;;;;;;0.40;0.30;;;18.90;99.90;;;;;;5032309;28;20440;-73
2021/09/15 02:45:39;;;;;;;0.40;0.20;;;18.90;99.90;;;;;;5014973;28;20505;-72
2021/09/15 02:48:05;;;;;;;0.40;0.30;;;18.80;99.90;;;;;;5033071;28;20391;-72
2021/09/15 02:50:31;;;;;;;0.40;0.20;;;18.80;99.90;;;;;;5032256;28;20375;-72
2021/09/15 02:52:57;;;;;;;0.40;0.30;;;18.80;99.90;;;;;;5033176;28;20383;-72
2021/09/15 02:55:24;;;;;;;0.40;0.32;;;18.80;99.90;;;;;;5032435;28;20383;-72
2021/09/15 02:57:49;;;;;;;0.40;0.20;;;18.80;99.90;;;;;;5015061;28;20398;-72
2021/09/15 03:00:15;;;;;;;0.40;0.20;;;18.80;99.90;;;;;;5014458;28;20799;-72
2021/09/15 03:02:41;;;;;;;0.40;0.20;;;18.80;99.90;;;;;;5015136;28;20427;-72
2021/09/15 03:05:07;;;;;;;0.40;0.20;;;18.80;99.90;;;;;;5032452;28;20887;-72
2021/09/15 03:07:33;;;;;;;0.40;0.20;;;18.70;99.90;;;;;;5031202;28;20989;-72
2021/09/15 03:09:59;;;;;;;0.40;0.20;;;18.70;99.90;;;;;;5032659;28;20379;-72
2021/09/15 03:12:24;;;;;;;0.40;0.30;;;18.60;99.90;;;;;;5031659;28;20398;-72
2021/09/15 03:14:50;;;;;;;0.40;0.30;;;18.60;99.90;;;;;;5032627;28;20393;-72
2021/09/15 03:17:16;;;;;;;0.40;0.20;;;18.60;99.90;;;;;;5031527;28;20383;-73
2021/09/15 03:19:41;;;;;;;0.40;0.20;;;18.70;99.90;;;;;;5032228;28;20392;-72
2021/09/15 03:22:07;;;;;;;0.40;0.30;;;18.60;99.90;;;;;;5032548;28;20863;-73
2021/09/15 03:24:33;;;;;;;0.40;0.20;;;18.70;99.90;;;;;;5031496;28;20481;-73
2021/09/15 03:26:58;;;;;;;0.40;0.20;;;18.60;99.90;;;;;;5014663;28;20392;-73
2021/09/15 03:29:24;;;;;;;0.40;0.30;;;18.60;99.90;;;;;;5031589;28;20380;-73
2021/09/15 03:31:50;;;;;;;0.40;0.30;;;18.70;99.90;;;;;;5032512;28;20418;-72
2021/09/15 03:34:15;;;;;;;0.40;0.20;;;18.60;99.90;;;;;;5031755;28;20390;-75
2021/09/15 03:36:41;;;;;;;0.40;0.30;;;18.60;99.90;;;;;;5032354;28;20380;-73
2021/09/15 03:39:06;;;;;;;0.40;0.30;;;18.60;99.90;;;;;;5032013;28;20872;-72
2021/09/15 03:41:32;;;;;;;0.40;0.30;;;18.50;99.90;;;;;;5013304;28;20387;-73
2021/09/15 03:43:58;;;;;;;0.40;0.30;;;18.50;99.90;;;;;;5032068;28;20963;-72
2021/09/15 03:46:24;;;;;;;0.40;0.30;;;18.50;99.90;;;;;;5031290;28;20387;-73
2021/09/15 03:48:49;;;;;;;0.40;0.20;;;18.50;99.90;;;;;;5032106;28;20725;-73
2021/09/15 03:51:15;;;;;;;0.40;0.30;;;18.50;99.90;;;;;;5031327;28;20383;-75
2021/09/15 03:53:41;;;;;;;0.40;0.20;;;18.60;99.90;;;;;;5010426;28;20911;-73
2021/09/15 03:56:06;;;;;;;0.40;0.20;;;18.50;99.90;;;;;;5013039;28;21225;-73
2021/09/15 03:58:32;;;;;;;0.40;0.20;;;18.60;99.90;;;;;;5022904;28;20395;-73
2021/09/15 04:00:58;;;;;;;0.40;0.30;;;18.50;99.90;;;;;;5023553;28;20751;-73
2021/09/15 04:03:23;;;;;;;0.40;0.30;;;18.50;99.90;;;;;;5022594;28;20517;-72
2021/09/15 04:05:49;;;;;;;0.40;0.30;;;18.50;99.90;;;;;;5011583;28;20420;-72
2021/09/15 04:08:15;;;;;;;0.40;0.30;;;18.40;99.90;;;;;;5026035;28;20387;-74
2021/09/15 04:10:40;;;;;;;0.40;0.20;;;18.40;99.90;;;;;;5030836;28;20384;-72
2021/09/15 04:13:06;;;;;;;0.40;0.25;;;18.40;99.90;;;;;;5031154;28;20484;-72
2021/09/15 04:15:31;;;;;;;0.40;0.30;;;18.30;99.90;;;;;;5026861;28;20384;-72
2021/09/15 04:17:57;;;;;;;0.40;0.20;;;18.30;99.90;;;;;;5011721;28;20463;-72
2021/09/15 04:20:23;;;;;;;0.40;0.30;;;18.30;99.90;;;;;;4993087;28;20392;-72
2021/09/15 04:22:49;;;;;;;0.40;0.20;;;18.40;99.90;;;;;;5011906;28;20412;-72
2021/09/15 04:33:28;;;;;;;0.40;0.20;;;18.30;99.90;;;;;;5021731;28;20470;-72
2021/09/15 04:35:53;;;;;;;0.40;0.30;;;18.20;99.90;;;;;;5031330;28;20466;-73
2021/09/15 04:38:19;;;;;;;0.40;0.20;;;18.20;99.90;;;;;;5030937;28;20379;-75
2021/09/15 04:40:45;;;;;;;0.40;0.30;;;18.30;99.90;;;;;;5031507;28;20391;-73
2021/09/15 04:43:10;;;;;;;0.40;0.20;;;18.30;99.90;;;;;;5031495;28;20410;-73
2021/09/15 04:45:37;;;;;;;0.40;0.30;;;18.30;99.90;;;;;;5030244;28;20419;-73
2021/09/15 04:48:03;;;;;;;0.40;0.20;;;18.20;99.90;;;;;;5031351;28;20410;-73
2021/09/15 04:50:29;;;;;;;0.40;0.30;;;18.20;99.90;;;;;;5030185;28;20433;-73
2021/09/15 04:52:55;;;;;;;0.40;0.30;;;18.10;99.90;;;;;;5031007;28;20387;-73
2021/09/15 04:55:20;;;;;;;0.40;0.20;;;18.20;99.90;;;;;;5030507;28;20859;-75
2021/09/15 04:57:46;;;;;;;0.40;0.20;;;18.10;99.90;;;;;;5030674;28;20405;-73
2021/09/15 05:00:12;;;;;;;0.40;0.30;;;18.10;99.90;;;;;;5031110;28;20478;-73
2021/09/15 05:02:38;;;;;;;0.40;0.20;;;18.20;99.90;;;;;;5028671;28;20437;-73
2021/09/15 05:05:04;;;;;;;0.40;0.30;;;18.20;99.90;;;;;;5030778;28;20411;-73
2021/09/15 05:07:29;;;;;;;0.40;0.20;;;18.10;99.90;;;;;;5001524;28;20545;-73
2021/09/15 05:09:55;;;;;;;0.40;0.20;;;18.20;99.90;;;;;;5010748;28;20395;-73
2021/09/15 05:12:21;;;;;;;0.40;0.20;;;18.10;99.90;;;;;;5010525;28;20397;-75
2021/09/15 05:14:46;;;;;;;0.40;0.30;;;18.20;99.90;;;;;;5016044;28;20497;-73
2021/09/15 05:17:12;;;;;;;0.40;0.30;;;18.20;99.90;;;;;;5024414;28;20388;-73
2021/09/15 05:19:37;;;;;;;0.40;0.30;;;18.20;99.90;;;;;;5025868;28;20754;-73
2021/09/15 05:22:03;;;;;;;0.40;0.20;;;18.20;99.90;;;;;;5011543;28;20385;-73
2021/09/15 05:24:29;;;;;;;0.40;0.20;;;18.20;99.90;;;;;;5010832;28;20456;-73
2021/09/15 05:26:55;;;;;;;0.40;0.23;;;18.20;99.90;;;;;;5011493;28;20381;-73
2021/09/15 05:29:20;;;;;;;0.40;0.30;;;18.20;99.90;;;;;;5010987;28;20412;-74
2021/09/15 05:31:52;;;;;;;0.40;0.20;;;18.40;99.90;;;;;;5011407;28;20454;-74
2021/09/15 05:34:17;;;;;;;0.40;0.20;;;18.40;99.90;;;;;;5011509;28;20408;-74
2021/09/15 05:36:43;;;;;;;0.40;0.20;;;18.40;99.90;;;;;;5016504;28;20403;-74
2021/09/15 05:39:08;;;;;;;0.40;0.30;;;18.50;99.90;;;;;;5018913;28;20422;-73
2021/09/15 05:41:34;;;;;;;0.40;0.20;;;18.40;99.90;;;;;;5016280;28;20396;-74
2021/09/15 05:44:00;;;;;;;0.50;0.40;;;18.50;99.90;;;;;;5012512;28;20403;-74
2021/09/15 05:46:26;;;;;;;0.40;0.30;;;18.50;99.90;;;;;;5014422;28;20380;-74
2021/09/15 05:48:51;;;;;;;0.40;0.30;;;18.50;99.90;;;;;;5014987;28;20383;-74
2021/09/15 05:51:17;;;;;;;0.40;0.30;;;18.50;99.90;;;;;;5014847;28;20385;-74
2021/09/15 05:53:43;;;;;;;0.40;0.20;;;18.40;99.90;;;;;;5014195;28;20753;-74
2021/09/15 05:56:09;;;;;;;0.40;0.20;;;18.40;99.90;;;;;;5014663;28;20391;-74
2021/09/15 05:58:34;;;;;;;0.40;0.30;;;18.50;99.90;;;;;;5014368;28;20455;-73
2021/09/15 06:01:00;;;;;;;0.40;0.30;;;18.40;99.90;;;;;;5014865;28;20480;-73
2021/09/15 06:03:26;;;;;;;0.40;0.30;;;18.50;99.90;;;;;;5014373;28;20427;-74
2021/09/15 06:05:51;;;;;;;0.40;0.20;;;18.50;99.90;;;;;;5014572;28;20488;-73
2021/09/15 06:08:17;;;;;;;0.40;0.30;;;18.50;99.90;;;;;;5031626;28;20427;-74
2021/09/15 06:10:43;;;;;;;0.40;0.25;;;18.50;99.90;;;;;;5033632;28;20437;-75
2021/09/15 06:13:08;;;;;;;0.40;0.30;;;18.50;99.90;;;;;;5034153;28;20411;-75
2021/09/15 06:15:34;;;;;;;0.40;0.20;;;18.50;99.90;;;;;;5033477;28;20386;-72
2021/09/15 06:18:00;;;;;;;0.40;0.30;;;18.40;99.90;;;;;;5034360;28;20389;-74
2021/09/15 06:20:25;;;;;;;0.40;0.20;;;18.50;99.90;;;;;;5033625;28;20375;-74
2021/09/15 06:22:51;;;;;;;0.40;0.20;;;18.40;99.90;;;;;;5034305;28;20395;-74
2021/09/15 06:25:16;;;;;;;0.40;0.20;;;18.50;99.90;;;;;;5034195;28;20411;-74
2021/09/15 06:27:42;;;;;;;0.40;0.20;;;18.50;99.90;;;;;;5033482;28;20653;-74
2021/09/15 06:30:09;;;;;;;0.40;0.30;;;18.50;99.90;;;;;;5034086;28;20471;-74
2021/09/15 06:32:36;;;;;;;0.40;0.20;;;18.40;99.90;;;;;;5033636;28;20437;-74
2021/09/15 06:35:02;;;;;;;0.40;0.30;;;18.50;99.90;;;;;;5033990;28;20865;-74
2021/09/15 06:37:27;;;;;;;0.40;0.20;;;18.40;99.90;;;;;;5033213;28;20466;-74
2021/09/15 06:39:53;;;;;;;0.40;0.20;;;18.40;99.90;;;;;;5033625;28;20405;-74
2021/09/15 06:42:19;;;;;;;0.40;0.30;;;18.40;99.90;;;;;;5033528;28;20406;-74
2021/09/15 06:44:45;;;;;;;0.40;0.30;;;18.50;99.90;;;;;;5015303;28;20421;-73
2021/09/15 06:47:10;;;;;;;0.40;0.20;;;18.40;99.90;;;;;;5033705;28;20415;-73
2021/09/15 06:49:36;;;;;;;0.40;0.30;;;18.50;99.90;;;;;;5032880;28;20854;-74
2021/09/15 06:52:02;;;;;;;0.40;0.30;;;18.50;99.90;;;;;;5033536;28;20389;-74
2021/09/15 06:54:28;;;;;;;0.40;0.30;;;18.50;99.90;;;;;;5032099;28;20396;-74
2021/09/15 06:56:53;;;;;;;0.40;0.30;;;18.50;99.90;;;;;;5033607;28;20459;-74
2021/09/15 06:59:19;;;;;;;0.40;0.30;;;18.50;99.90;;;;;;5033774;28;20382;-74
2021/09/15 07:01:45;;;;;;;0.40;0.30;;;18.60;99.90;;;;;;5032987;28;20390;-74
2021/09/15 07:04:11;;;;;;;0.40;0.20;;;18.50;99.90;;;;;;5033521;28;20453;-73
2021/09/15 07:06:36;;;;;;;0.40;0.30;;;18.60;99.90;;;;;;5029693;28;20409;-73
2021/09/15 07:09:02;;;;;;;0.40;0.20;;;18.70;99.90;;;;;;5013822;28;20832;-73
2021/09/15 07:11:28;;;;;;;0.40;0.30;;;18.70;99.90;;;;;;5013005;28;20384;-74
2021/09/15 07:13:53;;;;;;;0.40;0.20;;;18.80;99.90;;;;;;5013622;28;20508;-73
2021/09/15 07:16:19;;;;;;;0.40;0.30;;;18.80;99.90;;;;;;5013361;28;20749;-73
2021/09/15 07:18:45;;;;;;;0.40;0.30;;;18.80;99.90;;;;;;4995470;28;20402;-73
2021/09/15 07:21:13;;;;;;;0.40;0.30;;;18.70;99.90;;;;;;5013766;28;20389;-73
2021/09/15 07:23:38;;;;;;;0.40;0.30;;;18.70;99.90;;;;;;5012863;28;20471;-73
2021/09/15 07:26:04;;;;;;;0.40;0.30;;;18.70;99.90;;;;;;5013297;28;20467;-73
2021/09/15 07:28:30;;;;;;;0.40;0.30;;;18.70;99.90;;;;;;5012772;28;20376;-73
2021/09/15 07:30:55;;;;;;;0.40;0.20;;;18.70;99.90;;;;;;5013415;28;20381;-73
2021/09/15 07:33:21;;;;;;;0.40;0.20;;;18.70;99.90;;;;;;5013281;28;20388;-73
2021/09/15 07:35:47;;;;;;;0.40;0.30;;;18.70;99.90;;;;;;5012568;28;20446;-73
2021/09/15 07:38:12;;;;;;;0.40;0.30;;;18.80;99.90;;;;;;5013103;28;20377;-73
2021/09/15 07:40:38;;;;;;;0.40;0.30;;;18.80;99.90;;;;;;5012428;28;20380;-74
2021/09/15 07:43:03;;;;;;;0.80;0.50;;;18.80;99.90;;;;;;5012685;28;20437;-73
2021/09/15 07:45:29;;;;;;;0.40;0.30;;;18.80;99.90;;;;;;4994760;28;20409;-74
2021/09/15 07:47:55;;;;;;;0.40;0.23;;;18.80;99.90;;;;;;5012844;28;20464;-74
2021/09/15 07:50:21;;;;;;;0.40;0.30;;;18.70;99.90;;;;;;5012901;28;20442;-73
2021/09/15 07:52:47;;;;;;;0.40;0.30;;;18.70;99.90;;;;;;5012311;28;20463;-74
2021/09/15 07:55:13;;;;;;;0.40;0.30;;;18.70;99.90;;;;;;5012662;28;20389;-73
2021/09/15 07:57:43;;;;;;;0.40;0.30;;;18.80;99.90;;;;;;5012305;28;20388;-73
2021/09/15 08:00:09;;;;;;;0.40;0.30;;;18.70;99.90;;;;;;5012542;28;20392;-73
2021/09/15 08:02:35;;;;;;;0.40;0.20;;;18.80;99.90;;;;;;5012003;28;20746;-73
2021/09/15 08:05:00;;;;;;;0.40;0.20;;;18.80;99.90;;;;;;5012550;28;20409;-73
2021/09/15 08:07:26;;;;;;;0.40;0.20;;;18.80;99.90;;;;;;5021998;28;20474;-74
2021/09/15 08:09:52;;;;;;;0.40;0.30;;;18.90;99.90;;;;;;5031983;28;20415;-73
2021/09/15 08:12:18;;;;;;;0.40;0.30;;;18.80;99.90;;;;;;5032181;28;20863;-73
2021/09/15 08:14:43;;;;;;;0.40;0.20;;;18.80;99.90;;;;;;5031632;28;20412;-73
2021/09/15 08:17:09;;;;;;;0.40;0.20;;;18.90;99.90;;;;;;5031999;28;20383;-74
2021/09/15 08:19:35;;;;;;;0.40;0.23;;;19.00;99.90;;;;;;5031368;28;20760;-73
2021/09/15 08:22:00;;;;;;;0.40;0.30;;;19.00;99.90;;;;;;5032142;28;20394;-73
2021/09/15 08:24:26;;;;;;;0.40;0.40;;;19.00;99.90;;;;;;5031908;28;20412;-74
2021/09/15 08:26:53;;;;;;;0.40;0.30;;;19.00;99.90;;;;;;5031351;28;20494;-74
2021/09/15 08:29:18;;;;;;;0.40;0.30;;;19.00;99.90;;;;;;5031917;28;20376;-73
2021/09/15 08:31:44;;;;;;;0.40;0.28;;;19.10;99.90;;;;;;5031252;28;20969;-74
2021/09/15 08:34:10;;;;;;;0.40;0.20;;;19.20;99.90;;;;;;5032054;28;20383;-73
2021/09/15 08:36:35;;;;;;;0.40;0.30;;;19.20;99.90;;;;;;5031160;28;20410;-73
2021/09/15 08:39:02;;;;;;;0.40;0.30;;;19.40;99.90;;;;;;5031926;28;20502;-73
2021/09/15 08:41:27;;;;;;;0.40;0.30;;;19.40;99.90;;;;;;5031749;28;20414;-73
2021/09/15 08:43:53;;;;;;;0.40;0.30;;;19.40;99.90;;;;;;5030909;28;20404;-73
2021/09/15 08:46:21;;;;;;;0.40;0.30;;;19.40;99.90;;;;;;5032018;28;20391;-73
2021/09/15 08:48:47;;;;;;;0.40;0.30;;;19.60;99.90;;;;;;5030686;28;20851;-73
2021/09/15 08:51:16;;;;;;;0.40;0.20;;;19.60;99.90;;;;;;5031636;28;20383;-73
2021/09/15 08:53:43;;;;;;;0.40;0.30;;;19.60;99.90;;;;;;5031002;28;20385;-73
2021/09/15 08:56:09;;;;;;;0.40;0.20;;;19.60;99.90;;;;;;5031310;28;20386;-73
2021/09/15 08:58:35;;;;;;;0.40;0.20;;;19.50;99.90;;;;;;5030575;28;20810;-73
2021/09/15 09:01:08;;;;;;;0.40;0.30;;;19.50;99.90;;;;;;5031385;28;20375;-74
2021/09/15 09:03:36;;;;;;;0.40;0.30;;;19.60;99.90;;;;;;5030953;28;20387;-74
2021/09/15 09:06:13;;;;;;;0.40;0.20;;;19.70;99.90;;;;;;5031523;28;20502;-73
2021/09/15 09:08:41;;;;;;;0.40;0.20;;;19.80;99.90;;;;;;5011042;28;20750;-73
2021/09/15 09:11:07;;;;;;;0.40;0.28;;;19.70;99.90;;;;;;5011578;28;20478;-73
2021/09/15 09:13:34;;;;;;;0.40;0.20;;;19.80;99.90;;;;;;5010620;28;20841;-75
2021/09/15 09:16:00;;;;;;;0.40;0.20;;;19.80;99.90;;;;;;5011451;28;20391;-73
2021/09/15 09:18:26;;;;;;;0.40;0.20;;;19.80;99.90;;;;;;5011039;28;20407;-73
2021/09/15 09:20:52;;;;;;;0.40;0.30;;;19.80;99.90;;;;;;5011148;28;20385;-73
2021/09/15 09:23:18;;;;;;;0.40;0.20;;;19.80;99.90;;;;;;5011362;28;20874;-73
2021/09/15 09:25:56;;;;;;;0.40;0.30;;;19.80;99.90;;;;;;5010903;28;20423;-73
2021/09/15 09:28:27;;;;;;;0.40;0.40;;;20.00;99.90;;;;;;5011420;28;20385;-73
2021/09/15 09:30:58;;;;;;;0.40;0.30;;;19.90;99.90;;;;;;5010821;28;20662;-73
2021/09/15 09:33:24;;;;;;;0.40;0.30;;;19.90;99.90;;;;;;5011326;28;20436;-73
2021/09/15 09:35:51;;;;;;;0.40;0.30;;;20.00;99.90;;;;;;5010698;28;20419;-73
2021/09/15 09:38:30;;;;;;;0.40;0.30;;;20.00;99.90;;;;;;5011102;28;20435;-73
2021/09/15 09:41:02;;;;;;;0.40;0.20;;;19.90;99.90;;;;;;5010755;28;20399;-73
2021/09/15 09:43:30;;;;;;;0.40;0.30;;;19.90;99.90;;;;;;5011607;28;20393;-73
2021/09/15 09:45:55;;;;;;;0.40;0.30;;;19.90;99.90;;;;;;5010683;28;20511;-73
2021/09/15 09:48:44;;;;;;;0.40;0.20;;;20.00;99.90;;;;;;5010919;28;20957;-73
2021/09/15 09:51:35;;;;;;;0.40;0.30;;;20.00;99.90;;;;;;4993708;28;20463;-75
2021/09/15 09:54:20;;;;;;;0.40;0.20;;;20.00;99.90;;;;;;5011351;28;20389;-73
2021/09/15 09:56:51;;;;;;;0.40;0.20;;;19.90;99.90;;;;;;5010564;28;20817;-73
2021/09/15 09:59:19;;;;;;;0.40;0.30;;;19.70;99.90;;;;;;4993588;28;20730;-73
2021/09/15 10:01:49;;;;;;;0.40;0.20;;;19.50;99.90;;;;;;4992957;28;20417;-73
2021/09/15 10:04:17;;;;;;;0.40;0.20;;;19.40;99.90;;;;;;4993406;28;20797;-73
2021/09/15 10:06:43;;;;;;;0.40;0.20;;;19.30;99.90;;;;;;5010406;28;20377;-74
2021/09/15 10:09:10;;;;;;;0.40;0.20;;;19.20;99.90;;;;;;5010999;28;20393;-73
2021/09/15 10:11:37;;;;;;;0.40;0.20;;;19.10;99.90;;;;;;5010924;28;20757;-74
2021/09/15 10:14:06;;;;;;;0.40;0.30;;;19.10;99.90;;;;;;5010722;28;20894;-73
2021/09/15 10:16:40;;;;;;;0.40;0.30;;;19.20;99.90;;;;;;5010983;28;20511;-73
2021/09/15 10:19:07;;;;;;;0.40;0.20;;;19.20;99.90;;;;;;5010961;28;20760;-73
2021/09/15 10:21:35;;;;;;;0.40;0.20;;;19.20;99.90;;;;;;5010945;28;20793;-74
2021/09/15 10:24:03;;;;;;;0.40;0.30;;;19.20;99.90;;;;;;5010134;28;20404;-73
2021/09/15 10:26:36;;;;;;;0.40;0.20;;;19.30;99.90;;;;;;5010834;28;20377;-74
2021/09/15 10:29:29;;;;;;;0.40;0.30;;;19.30;99.90;;;;;;5011038;28;20465;-73
2021/09/15 10:32:04;;;;;;;0.40;0.30;;;19.40;99.90;;;;;;5013771;28;20435;-73
2021/09/15 10:34:39;;;;;;;0.40;0.30;;;19.60;99.90;;;;;;5014243;28;20447;-73
2021/09/15 10:37:13;;;;;;;0.40;0.20;;;19.70;99.90;;;;;;5014291;28;20393;-73
2021/09/15 10:39:56;;;;;;;0.40;0.20;;;19.70;99.90;;;;;;4995884;28;20884;-74
2021/09/15 10:45:25;;;;;;;0.40;0.30;;;20.00;99.90;;;;;;5013321;28;20417;-73
2021/09/15 10:48:21;;;;;;;0.40;0.30;;;20.00;99.90;;;;;;5013484;28;20408;-73
2021/09/15 10:50:51;;;;;;;0.40;0.20;;;20.10;99.90;;;;;;5004130;28;20393;-73
2021/09/15 10:53:18;;;;;;;0.40;0.20;;;20.30;99.90;;;;;;5013885;28;20395;-73
2021/09/15 10:55:50;;;;;;;0.40;0.20;;;20.30;99.90;;;;;;5013248;28;20511;-73
2021/09/15 10:58:41;;;;;;;0.40;0.22;;;20.30;99.90;;;;;;5013772;28;20396;-73
2021/09/15 11:01:07;;;;;;;0.40;0.30;;;20.50;99.90;;;;;;5013866;28;20386;-73
2021/09/15 11:03:41;;;;;;;0.40;0.20;;;20.60;99.90;;;;;;5013953;28;20395;-73
2021/09/15 11:06:07;;;;;;;0.40;0.30;;;20.70;99.90;;;;;;5013738;28;20415;-73
2021/09/15 11:08:49;;;;;;;0.40;0.20;;;20.70;99.90;;;;;;5032197;28;20491;-73
2021/09/15 11:11:27;;;;;;;0.40;0.30;;;20.90;99.90;;;;;;5033301;28;20402;-73
2021/09/15 11:14:06;;;;;;;0.40;0.20;;;21.00;99.90;;;;;;5032163;28;20417;-73
2021/09/15 11:16:38;;;;;;;0.40;0.30;;;21.00;99.90;;;;;;5033205;28;20770;-73
2021/09/15 11:19:16;;;;;;;0.40;0.30;;;20.90;99.90;;;;;;5032555;28;20379;-74
2021/09/15 11:21:48;;;;;;;0.40;0.30;;;20.70;99.90;;;;;;5032670;28;20391;-74
2021/09/15 11:24:20;;;;;;;0.40;0.30;;;20.80;99.90;;;;;;5032813;28;20394;-74
2021/09/15 11:26:58;;;;;;;0.40;0.20;;;20.60;99.90;;;;;;5032575;28;20376;-74
2021/09/15 11:29:53;;;;;;;0.40;0.30;;;20.50;99.90;;;;;;5032907;28;20430;-74
2021/09/15 11:32:20;;;;;;;0.40;0.20;;;20.50;99.90;;;;;;5012279;28;20391;-73
2021/09/15 11:34:51;;;;;;;0.40;0.30;;;20.40;99.90;;;;;;5031860;28;20409;-75
2021/09/15 11:37:19;;;;;;;0.40;0.30;;;20.50;99.90;;;;;;5032886;28;20719;-74
2021/09/15 11:39:55;;;;;;;0.40;0.30;;;20.60;99.90;;;;;;5031730;28;20785;-73
2021/09/15 11:42:23;;;;;;;0.40;0.20;;;20.80;99.90;;;;;;5032508;28;20395;-74
2021/09/15 11:44:49;;;;;;;0.40;0.30;;;21.00;99.90;;;;;;5032003;28;20692;-74
2021/09/15 11:47:23;;;;;;;0.40;0.25;;;21.10;99.90;;;;;;5032746;28;20375;-74
2021/09/15 11:49:48;;;;;;;0.40;0.20;;;21.20;99.90;;;;;;5031967;28;20379;-74
2021/09/15 11:52:15;;;;;;;0.40;0.30;;;21.40;99.90;;;;;;5032378;28;20402;-74
2021/09/15 11:54:42;;;;;;;0.40;0.30;;;21.60;99.90;;;;;;5032452;28;20387;-74
2021/09/15 11:57:09;;;;;;;0.40;0.30;;;21.80;99.90;;;;;;5032440;28;20428;-74
2021/09/15 11:59:35;;;;;;;0.40;0.20;;;22.00;99.90;;;;;;5032532;28;20477;-74
2021/09/15 12:02:04;;;;;;;0.40;0.20;;;21.90;99.90;;;;;;5032124;28;20847;-74
2021/09/15 12:04:33;;;;;;;0.40;0.30;;;21.90;99.90;;;;;;5032006;28;20407;-74
2021/09/15 12:07:00;;;;;;;0.40;0.20;;;21.90;99.90;;;;;;5025464;28;20396;-74
2021/09/15 12:09:26;;;;;;;0.40;0.30;;;22.00;99.90;;;;;;5012442;28;20385;-74
2021/09/15 12:11:51;;;;;;;0.40;0.27;;;22.20;99.90;;;;;;5011703;28;20781;-74
2021/09/15 12:14:17;;;;;;;0.40;0.20;;;22.20;99.90;;;;;;5012346;28;20416;-74
2021/09/15 12:16:43;;;;;;;0.40;0.30;;;22.50;99.90;;;;;;5012414;28;20373;-73
2021/09/15 12:19:17;;;;;;;0.40;0.20;;;22.70;99.90;;;;;;5011967;28;20698;-74
2021/09/15 12:21:46;;;;;;;0.40;0.20;;;22.60;99.90;;;;;;4994699;28;20448;-74
2021/09/15 12:24:14;;;;;;;0.40;0.30;;;22.50;99.90;;;;;;5012251;28;20385;-74
2021/09/15 12:26:40;;;;;;;0.40;0.20;;;22.30;99.90;;;;;;5012263;28;20434;-74
2021/09/15 12:29:12;;;;;;;0.40;0.30;;;22.30;99.90;;;;;;5011541;28;20385;-74
2021/09/15 12:31:51;;;;;;;0.40;0.30;;;22.30;99.90;;;;;;5012180;28;20480;-74
2021/09/15 12:34:39;;;;;;;0.40;0.30;;;22.10;99.90;;;;;;5011795;28;20887;-73
2021/09/15 12:37:19;;;;;;;0.40;0.20;;;22.20;99.90;;;;;;5011498;28;20615;-73
2021/09/15 12:39:49;;;;;;;0.40;0.30;;;22.10;99.90;;;;;;5011385;28;20521;-75
2021/09/15 12:42:17;;;;;;;0.40;0.20;;;22.00;99.90;;;;;;4993962;28;20413;-73
2021/09/15 12:44:44;;;;;;;0.40;0.30;;;21.90;99.90;;;;;;5011162;28;20574;-73
2021/09/15 12:47:10;;;;;;;0.40;0.30;;;21.70;99.90;;;;;;5011618;28;20469;-73
2021/09/15 12:49:41;;;;;;;0.40;0.30;;;21.60;99.90;;;;;;5018411;28;20871;-73
2021/09/15 12:52:18;;;;;;;0.40;0.30;;;21.40;99.90;;;;;;5021362;28;20383;-74
2021/09/15 12:54:55;;;;;;;0.40;0.20;;;21.30;99.90;;;;;;5031026;28;20887;-75
2021/09/15 12:57:32;;;;;;;0.40;0.30;;;21.40;99.90;;;;;;5031398;28;20387;-74
2021/09/15 13:00:20;;;;;;;0.40;0.20;;;21.30;99.90;;;;;;5030853;28;20473;-74
2021/09/15 13:03:06;;;;;;;0.40;0.30;;;21.30;99.90;;;;;;5031121;28;20387;-76